Claes Maersk — OZDT2 — position and weather

sailwx.info

Track history (hours):
 
Tides and Currents Weather Stations Pressure Air Temp Water Temp Dewpoint Dewpoint Depression Visibility Wind Speed Wind Dir Waves Ship Positions

Claes Maersk

Last reported at 2016-Feb-26 20:10 UTC. Time now 2016-May-26 20:25 UTC.
Position S 20°02' E 057°02'.
Warning: this ship's position is months out of date.

Length 190 m; draft 9.8 m.

Type: Cargo ship. MMSI: 219572000.

Date/timePositionNaut miles runAvg speedWind from/ knotsBaromVisibWave heightAir tempDewpointWater temp
2016-Feb-26 20:10S 20°02' E 057°02'711.5
2016-Feb-26 19:32S 20°04' E 057°10'1111.5
2016-Feb-26 18:33S 20°07' E 057°21'8 7.9
2016-Feb-26 17:31S 20°08' E 057°30'0 0.0
2016-Feb-26 16:31S 20°08' E 057°30'0 0.0
2016-Feb-26 15:31S 20°08' E 057°30'0 0.0
2016-Feb-26 14:31S 20°08' E 057°30'0 0.0
2016-Feb-26 13:31S 20°08' E 057°30'0 0.0
2016-Feb-26 12:31S 20°08' E 057°30'0 0.0
2016-Feb-26 11:31S 20°08' E 057°30'0 0.0
2016-Feb-26 10:31S 20°08' E 057°30'0 0.0
2016-Feb-26 09:31S 20°08' E 057°30'0 0.0
2016-Feb-26 08:31S 20°08' E 057°30'0 0.0
2016-Feb-26 07:31S 20°08' E 057°30'0 0.0
2016-Feb-26 06:31S 20°08' E 057°30'0 0.0
2016-Feb-26 05:31S 20°08' E 057°30'0 0.0
2016-Feb-26 04:31S 20°08' E 057°30'0 0.0
2016-Feb-26 03:31S 20°08' E 057°30'0 0.0
2016-Feb-26 02:31S 20°08' E 057°30'0 0.0
2016-Feb-26 01:31S 20°08' E 057°30'0 0.0
2016-Feb-26 00:31S 20°08' E 057°30'0 0.0
2016-Feb-25 23:31S 20°08' E 057°30'0 0.0
2016-Feb-25 22:31S 20°08' E 057°30'0 0.0
2016-Feb-25 21:31S 20°08' E 057°30'0 0.0
2016-Feb-25 20:31S 20°08' E 057°30'0 0.0
2016-Feb-25 19:31S 20°08' E 057°30'0 0.0
2016-Feb-25 18:31S 20°08' E 057°30'0 0.0
2016-Feb-25 17:31S 20°08' E 057°30'0 0.0
2016-Feb-25 16:28S 20°08' E 057°30'0 0.0
2016-Feb-25 15:26S 20°08' E 057°30'0 0.0
2016-Feb-25 14:33S 20°08' E 057°30'0 0.0
2016-Feb-25 13:33S 20°08' E 057°30'0 0.0
2016-Feb-25 12:33S 20°08' E 057°30'0 0.0
2016-Feb-25 11:33S 20°08' E 057°30'0 0.0
2016-Feb-25 10:33S 20°08' E 057°30'3 2.5
2016-Feb-25 09:33S 20°08' E 057°27'4 3.0
2016-Feb-25 08:14S 20°07' E 057°23'0 0.5
2016-Feb-25 07:23S 20°08' E 057°23'1 0.7
2016-Feb-25 06:34S 20°08' E 057°23'0 0.1
2016-Feb-25 05:31S 20°08' E 057°23'1 0.6
2016-Feb-25 04:33S 20°08' E 057°23'0 0.3
2016-Feb-25 03:33S 20°08' E 057°23'1 0.8
2016-Feb-25 02:33S 20°09' E 057°24'2 2.2
2016-Feb-25 01:33S 20°09' E 057°21'4 4.1
2016-Feb-25 00:33S 20°10' E 057°17'  
Track history (hours):
 
Tides and Currents Weather Stations Pressure Air Temp Water Temp Dewpoint Dewpoint Depression Visibility Wind Speed Wind Dir Waves Ship Positions

Claes Maersk

Last reported at 2016-Feb-26 20:10 UTC. Time now 2016-May-26 20:25 UTC.
Position S 20°02' E 057°02'.
Warning: this ship's position is months out of date.

Length 190 m; draft 9.8 m.

Type: Cargo ship. MMSI: 219572000.

Date/timePositionNaut miles runAvg speedWind from/ knotsBaromVisibWave heightAir tempDewpointWater temp
2016-Feb-26 20:10S 20°02' E 057°02'711.5
2016-Feb-26 19:32S 20°04' E 057°10'1111.5
2016-Feb-26 18:33S 20°07' E 057°21'8 7.9
2016-Feb-26 17:31S 20°08' E 057°30'0 0.0
2016-Feb-26 16:31S 20°08' E 057°30'0 0.0
2016-Feb-26 15:31S 20°08' E 057°30'0 0.0
2016-Feb-26 14:31S 20°08' E 057°30'0 0.0
2016-Feb-26 13:31S 20°08' E 057°30'0 0.0
2016-Feb-26 12:31S 20°08' E 057°30'0 0.0
2016-Feb-26 11:31S 20°08' E 057°30'0 0.0
2016-Feb-26 10:31S 20°08' E 057°30'0 0.0
2016-Feb-26 09:31S 20°08' E 057°30'0 0.0
2016-Feb-26 08:31S 20°08' E 057°30'0 0.0
2016-Feb-26 07:31S 20°08' E 057°30'0 0.0
2016-Feb-26 06:31S 20°08' E 057°30'0 0.0
2016-Feb-26 05:31S 20°08' E 057°30'0 0.0
2016-Feb-26 04:31S 20°08' E 057°30'0 0.0
2016-Feb-26 03:31S 20°08' E 057°30'0 0.0
2016-Feb-26 02:31S 20°08' E 057°30'0 0.0
2016-Feb-26 01:31S 20°08' E 057°30'0 0.0
2016-Feb-26 00:31S 20°08' E 057°30'0 0.0
2016-Feb-25 23:31S 20°08' E 057°30'0 0.0
2016-Feb-25 22:31S 20°08' E 057°30'0 0.0
2016-Feb-25 21:31S 20°08' E 057°30'0 0.0
2016-Feb-25 20:31S 20°08' E 057°30'0 0.0
2016-Feb-25 19:31S 20°08' E 057°30'0 0.0
2016-Feb-25 18:31S 20°08' E 057°30'0 0.0
2016-Feb-25 17:31S 20°08' E 057°30'0 0.0
2016-Feb-25 16:28S 20°08' E 057°30'0 0.0
2016-Feb-25 15:26S 20°08' E 057°30'0 0.0
2016-Feb-25 14:33S 20°08' E 057°30'0 0.0
2016-Feb-25 13:33S 20°08' E 057°30'0 0.0
2016-Feb-25 12:33S 20°08' E 057°30'0 0.0
2016-Feb-25 11:33S 20°08' E 057°30'0 0.0
2016-Feb-25 10:33S 20°08' E 057°30'3 2.5
2016-Feb-25 09:33S 20°08' E 057°27'4 3.0
2016-Feb-25 08:14S 20°07' E 057°23'0 0.5
2016-Feb-25 07:23S 20°08' E 057°23'1 0.7
2016-Feb-25 06:34S 20°08' E 057°23'0 0.1
2016-Feb-25 05:31S 20°08' E 057°23'1 0.6
2016-Feb-25 04:33S 20°08' E 057°23'0 0.3
2016-Feb-25 03:33S 20°08' E 057°23'1 0.8
2016-Feb-25 02:33S 20°09' E 057°24'2 2.2
2016-Feb-25 01:33S 20°09' E 057°21'4 4.1
2016-Feb-25 00:33S 20°10' E 057°17'  

Dump ship's entire track history